Latest Weather Observations for Maroochydore

IDQ60901

Issued at 9:11 pm EST Tuesday 24 January 2017 (issued every 10 minutes, with the page automatically refreshed every 10 minutes)

About weather observations | Map of Brisbane area stations | Latest observations for Brisbane area | Other Formats
Station Details ID: 040861 Name: SUNSHINE COAST AIRPORT Lat: -26.60 Lon: 153.09 Height: 3.3 m
Data from the previous 72 hours. | See also: Recent months at Maroochydore
Date/Time
EST
Temp
°C
App
Temp
°C
Dew
Point
°C
Rel
Hum
%
Delta-T
°C
Wind Press
QNH
hPa
Press
MSL
hPa
Rain since
9am
mm
Dir  Spd
km/h
Gust
km/h
Spd
kts
Gust
kts
24/08:30pm 23.5 23.8 17.9 71 3.5 N 13 17 7 9 1014.6 - 0.0
24/08:00pm 24.4 24.4 18.1 68 4.0 N 15 20 8 11 1014.2 - 0.0
24/07:30pm 24.7 24.8 18.4 68 4.0 N 15 17 8 9 1014.1 - 0.0
24/07:00pm 25.3 24.6 18.7 67 4.2 NNE 20 28 11 15 1013.9 - 0.0
24/06:30pm 25.6 24.7 17.8 62 4.9 NNE 19 24 10 13 1013.6 - 0.0
24/06:00pm 26.6 25.9 18.2 60 5.3 NNE 19 24 10 13 1013.2 1013.2 0.0
24/05:30pm 27.6 26.7 18.3 57 5.9 NNE 20 26 11 14 1012.9 - 0.0
24/05:00pm 28.1 26.9 18.5 56 6.1 NNE 22 26 12 14 1012.8 - 0.0
24/04:30pm 28.6 27.0 17.5 51 7.0 NNE 22 26 12 14 1012.8 - 0.0
24/04:00pm 29.2 27.3 16.7 46 7.8 NNE 22 28 12 15 1012.7 - 0.0
24/03:30pm 29.4 26.9 16.2 44 8.2 NE 24 30 13 16 1012.8 - 0.0
24/03:00pm 29.9 27.3 16.0 43 8.6 NE 24 30 13 16 1013.0 1013.0 0.0
24/02:30pm 29.6 27.3 15.7 43 8.6 NE 22 28 12 15 1013.2 - 0.0
24/02:00pm 31.0 28.7 15.8 40 9.4 NE 22 30 12 16 1013.5 - 0.0
24/01:30pm 29.9 26.8 14.4 38 9.4 NE 24 30 13 16 1013.7 - 0.0
24/01:00pm 30.7 27.9 14.3 36 9.9 NE 22 30 12 16 1014.1 - 0.0
24/12:30pm 30.3 27.2 14.4 38 9.6 NE 24 30 13 16 1014.4 - 0.0
24/12:00pm 31.2 28.1 13.5 34 10.6 NE 22 28 12 15 1014.7 1014.7 0.0
24/11:30am 30.8 28.0 13.1 34 10.5 NNE 20 28 11 15 1015.1 - 0.0
24/11:00am 30.1 27.4 13.4 36 10.0 NE 20 26 11 14 1015.6 - 0.0
24/10:30am 29.8 27.5 14.0 38 9.5 NE 19 24 10 13 1016.0 - 0.0
24/10:00am 29.5 26.9 13.3 37 9.6 NE 19 22 10 12 1016.5 - 0.0
24/09:30am 29.5 27.0 14.1 39 9.3 NNE 20 24 11 13 1016.5 - 0.0
24/09:00am 29.5 28.5 14.5 40 9.1 NE 13 19 7 10 1016.6 1016.6 -
24/08:30am 28.6 27.4 14.1 41 8.7 NNE 13 22 7 12 1016.7 - -
24/08:00am 27.6 27.0 13.5 41 8.3 N 9 15 5 8 1016.6 - -
24/07:30am 26.2 27.1 16.2 54 6.1 W 6 9 3 5 1016.9 - -
24/07:00am 24.4 25.1 17.1 63 4.5 W 9 11 5 6 1016.5 - -
24/06:30am 22.3 23.4 17.2 73 3.1 W 7 9 4 5 1016.4 - -
24/06:00am 20.2 21.5 17.6 85 1.6 W 7 9 4 5 1016.1 1016.1 -
24/05:30am 19.5 20.3 17.3 87 1.3 W 9 11 5 6 1015.8 - -
24/05:00am 20.0 20.8 17.4 85 1.6 WNW 9 11 5 6 1015.4 - -
24/04:30am 20.6 21.5 17.6 83 1.8 W 9 11 5 6 1015.2 - -
24/04:00am 21.2 22.4 17.4 79 2.3 WSW 7 9 4 5 1015.2 - -
24/03:30am 22.2 24.8 17.6 75 2.8 CALM 0 0 0 0 1015.1 - -
24/03:00am 22.5 25.0 17.2 72 3.3 CALM 0 0 0 0 1015.1 1015.1 -
24/02:30am 22.8 25.0 16.4 67 3.9 CALM 0 0 0 0 1015.2 - -
24/02:00am 23.9 25.6 15.1 58 5.3 CALM 0 0 0 0 1015.1 - -
24/01:30am 25.2 23.6 14.0 49 6.6 NE 15 20 8 11 1015.2 - -
24/01:00am 24.4 24.4 15.1 56 5.6 NNE 9 13 5 7 1015.2 - -
24/12:30am 25.1 24.9 14.6 52 6.3 ENE 9 13 5 7 1015.3 - -
24/12:00am 25.1 23.5 13.9 49 6.6 ENE 15 19 8 10 1015.6 1015.6 -
 
Date/Time
EST
Temp
°C
App
Temp
°C
Dew
Point
°C
Rel
Hum
%
Delta-T
°C
Wind Press
QNH
hPa
Press
MSL
hPa
Rain since
9am
mm
Dir  Spd
km/h
Gust
km/h
Spd
kts
Gust
kts
23/11:30pm 25.5 24.0 14.3 50 6.7 ENE 15 20 8 11 1015.9 - -
23/11:00pm 25.7 23.2 15.1 52 6.4 ENE 22 28 12 15 1016.2 - -
23/10:30pm 25.6 25.1 15.9 55 5.9 E 13 24 7 13 1016.4 - -
23/10:00pm 25.5 25.2 14.3 50 6.7 E 9 11 5 6 1016.7 - -
23/09:30pm 25.5 26.1 16.9 59 5.3 ESE 9 11 5 6 1016.7 - -
23/09:00pm 25.5 26.1 16.9 59 5.3 ESE 9 13 5 7 1016.7 1016.7 -
23/08:30pm 25.4 26.0 15.7 55 5.9 E 7 9 4 5 1016.3 - -
23/08:00pm 25.3 24.7 14.7 51 6.3 E 11 15 6 8 1016.1 - -
23/07:30pm 25.6 23.4 15.0 52 6.4 ENE 20 22 11 12 1015.9 - -
23/07:00pm 25.7 25.3 17.1 59 5.3 E 15 20 8 11 1015.6 - -
23/06:30pm 26.1 25.8 16.4 55 6.0 ESE 13 17 7 9 1015.3 - -
23/06:00pm 26.6 25.7 15.9 51 6.5 ESE 15 20 8 11 1015.0 1015.0 -
23/05:30pm 27.3 26.1 16.0 50 6.9 ESE 17 20 9 11 1014.7 - -
23/05:00pm 27.9 27.1 16.2 49 7.2 ESE 15 20 8 11 1014.5 - -
23/04:30pm 27.0 26.4 16.6 53 6.4 SE 15 19 8 10 1014.2 - -
23/04:00pm 27.0 25.7 15.7 50 6.9 SE 17 20 9 11 1014.2 - -
23/03:30pm 28.2 27.2 15.5 46 7.8 ESE 15 20 8 11 1014.3 - -
23/03:00pm 28.5 26.6 14.3 41 8.5 ESE 17 22 9 12 1014.2 1014.2 0.0
23/02:30pm 27.8 26.1 14.8 45 7.9 ESE 17 20 9 11 1014.4 - -
23/02:00pm 29.1 28.0 15.2 42 8.5 ESE 15 20 8 11 1014.7 - -
23/01:30pm 28.3 26.7 14.9 44 8.1 ESE 17 20 9 11 1014.9 - -
23/01:00pm 29.0 27.7 14.8 42 8.6 ESE 15 20 8 11 1015.2 - -
23/12:30pm 28.2 26.8 13.3 40 8.8 ESE 13 20 7 11 1015.5 - -
23/12:00pm 28.1 26.3 13.2 39 8.8 SE 15 24 8 13 1015.8 1015.8 -
23/11:30am 27.9 25.9 12.7 39 8.9 ESE 15 22 8 12 1016.1 - -
23/11:00am 27.7 26.1 12.9 40 8.7 SE 13 19 7 10 1016.3 - -
23/10:30am - - - - - - - - - - - - -
23/10:00am 27.3 25.7 11.7 37 9.0 E 11 15 6 8 1016.7 - 0.0
23/09:30am 25.9 22.6 8.0 32 9.6 E 15 22 8 12 1016.8 - 0.0
23/09:00am 27.2 23.9 12.8 41 8.4 ESE 22 33 12 18 1016.7 1016.7 0.0
23/08:30am 26.8 23.6 13.2 43 8.0 SE 22 28 12 15 1016.4 - 0.0
23/08:00am 26.2 23.6 13.7 46 7.4 SSE 20 26 11 14 1016.3 - 0.0
23/07:30am 25.7 23.0 12.9 45 7.4 SSE 19 24 10 13 1016.2 - 0.0
23/07:00am 25.0 23.4 12.9 47 7.0 SSE 13 17 7 9 1016.0 - 0.0
23/06:30am 25.3 22.4 12.9 46 7.2 ESE 20 28 11 15 1015.7 - 0.0
23/06:00am 24.8 23.0 13.4 49 6.6 ESE 15 20 8 11 1015.3 1015.3 0.0
23/05:30am 24.1 21.6 13.6 52 6.1 ESE 19 24 10 13 1014.9 - 0.0
23/05:00am 22.9 22.4 15.0 61 4.7 S 11 20 6 11 1014.7 - 0.0
23/04:30am 21.9 21.3 14.5 63 4.3 SSW 11 13 6 7 1014.5 - 0.0
23/04:00am 23.0 21.3 14.8 60 4.9 SSE 17 22 9 12 1014.3 - 0.0
23/03:30am 23.3 21.4 14.3 57 5.3 SE 17 24 9 13 1014.2 - 0.0
23/03:00am 24.0 21.2 13.2 50 6.3 ESE 20 26 11 14 1014.2 1014.2 0.0
23/02:30am 24.3 21.8 14.1 53 6.0 ESE 20 30 11 16 1014.3 - 0.0
23/02:00am 24.3 21.9 14.4 54 5.9 ESE 20 28 11 15 1014.5 - 0.0
23/01:30am 24.1 22.1 15.6 59 5.1 SE 20 28 11 15 1014.6 - 0.0
23/01:00am 24.3 22.0 15.8 59 5.1 SE 22 30 12 16 1014.9 - 0.0
23/12:30am 24.4 22.6 16.1 60 5.1 ESE 20 28 11 15 1015.2 - 0.0
23/12:00am 24.5 22.9 16.5 61 4.9 ESE 20 30 11 16 1015.1 1015.1 0.0
 
Date/Time
EST
Temp
°C
App
Temp
°C
Dew
Point
°C
Rel
Hum
%
Delta-T
°C
Wind Press
QNH
hPa
Press
MSL
hPa
Rain since
9am
mm
Dir  Spd
km/h
Gust
km/h
Spd
kts
Gust
kts
22/11:30pm 24.5 23.1 16.5 61 4.9 ESE 19 24 10 13 1015.3 - 0.0
22/11:00pm 24.6 22.9 16.3 60 5.1 ESE 20 30 11 16 1015.6 - 0.0
22/10:30pm 24.5 22.7 16.0 59 5.2 ESE 20 28 11 15 1015.8 - 0.0
22/10:00pm 24.5 22.7 16.0 59 5.2 ESE 20 26 11 14 1016.0 - 0.0
22/09:30pm 24.4 22.9 16.4 61 4.9 ESE 19 26 10 14 1016.1 - 0.0
22/09:00pm 24.4 22.6 15.9 59 5.2 SE 20 26 11 14 1015.9 1015.9 0.0
22/08:30pm 24.1 22.5 16.1 61 4.9 SE 19 26 10 14 1015.9 - 0.0
22/08:00pm 24.3 22.5 16.0 60 5.0 SE 20 26 11 14 1015.7 - 0.0
22/07:30pm 24.3 22.8 16.3 61 4.9 SE 19 26 10 14 1015.5 - 0.0
22/07:00pm 24.8 23.1 16.2 58 5.3 ESE 20 30 11 16 1015.4 - 0.0
22/06:30pm 24.7 23.2 16.7 61 4.9 ESE 20 26 11 14 1015.2 - 0.0
22/06:00pm 25.2 23.8 16.9 60 5.1 SE 20 28 11 15 1014.8 1014.8 0.0
22/05:30pm 25.5 24.1 16.9 59 5.3 ESE 20 28 11 15 1014.5 - 0.0
22/05:00pm 26.0 23.7 15.7 53 6.3 SE 22 30 12 16 1014.3 - 0.0
22/04:30pm 25.8 23.5 15.8 54 6.1 SE 22 30 12 16 1014.1 - 0.0
22/04:00pm 26.0 24.1 16.8 57 5.7 SE 22 30 12 16 1014.1 - 0.0
22/03:30pm 26.1 24.2 16.6 55 5.9 ESE 22 28 12 15 1014.3 - 0.0
22/03:00pm 26.4 24.3 16.3 53 6.2 SE 22 30 12 16 1014.4 1014.4 0.0
22/02:30pm 26.3 24.4 16.8 56 5.9 ESE 22 28 12 15 1014.7 - 0.0
22/02:00pm 26.8 24.4 16.4 53 6.4 SE 24 32 13 17 1014.8 - 0.0
22/01:30pm 27.0 24.7 16.6 53 6.4 SE 24 32 13 17 1014.8 - 0.0
22/01:00pm 26.7 25.0 17.2 56 5.9 ESE 22 32 12 17 1015.0 - 0.0
22/12:30pm 26.4 24.4 17.5 58 5.6 ESE 24 35 13 19 1015.3 - 0.0
22/12:00pm 26.2 24.2 17.3 58 5.6 ESE 24 30 13 16 1015.6 1015.6 0.0
22/11:30am 26.3 24.3 17.4 58 5.6 SE 24 35 13 19 1015.7 - 0.0
22/11:00am 27.3 25.7 18.3 58 5.7 SE 24 30 13 16 1015.8 - 0.0
22/10:30am 27.2 25.3 19.3 62 5.1 SE 28 37 15 20 1015.8 - 0.0
22/10:00am 26.7 24.5 18.8 62 5.1 SE 28 37 15 20 1015.7 - 0.0
22/09:30am 28.3 26.6 19.0 57 6.0 SE 26 35 14 19 1015.6 - 0.0
22/09:00am 26.4 23.9 18.0 60 5.3 SE 28 35 15 19 1015.6 1015.6 5.2
22/08:30am 25.9 24.0 18.6 64 4.6 SE 26 35 14 19 1015.4 - 5.2
22/08:00am 25.4 23.6 18.8 67 4.2 SE 26 35 14 19 1015.2 - 5.2
22/07:30am 24.5 24.1 20.2 77 2.8 SSE 22 32 12 17 1015.1 - 5.2
22/07:00am 25.4 24.5 19.1 68 4.0 SE 22 30 12 16 1014.9 - 5.0
22/06:30am 25.0 23.6 18.7 68 4.0 SE 24 37 13 20 1014.6 - 5.0
22/06:00am 24.9 23.3 19.3 71 3.6 SE 26 35 14 19 1014.2 1014.2 5.0
22/05:30am 23.8 21.6 18.7 73 3.2 SSE 28 43 15 23 1014.0 - 5.0
22/05:00am 23.5 22.3 19.2 77 2.7 SE 24 39 13 21 1013.6 - 5.0
22/04:30am 24.8 23.3 19.4 72 3.5 SE 26 41 14 22 1013.0 - 5.0
22/04:00am 25.0 23.0 19.1 70 3.8 SE 28 35 15 19 1012.5 - 5.0
22/03:30am 24.8 23.3 19.4 72 3.5 SE 26 41 14 22 1012.1 - 5.0
22/03:00am 24.9 23.1 19.5 72 3.5 SE 28 37 15 20 1011.9 1011.9 5.0
22/02:30am 25.0 23.3 18.9 69 3.9 SE 26 35 14 19 1011.9 - 5.0
22/02:00am 25.0 24.0 19.6 72 3.5 SE 24 33 13 18 1012.1 - 5.0
22/01:30am 24.9 23.1 18.8 69 3.9 SE 26 35 14 19 1012.3 - 5.0
22/01:00am 25.1 23.4 19.7 72 3.5 SE 28 37 15 20 1012.3 - 5.0
22/12:30am 24.9 23.2 19.9 74 3.2 SE 28 37 15 20 1012.4 - 5.0
22/12:00am 25.0 23.7 19.8 73 3.4 SE 26 35 14 19 1012.7 1012.7 5.0
 
Date/Time
EST
Temp
°C
App
Temp
°C
Dew
Point
°C
Rel
Hum
%
Delta-T
°C
Wind Press
QNH
hPa
Press
MSL
hPa
Rain since
9am
mm
Dir  Spd
km/h
Gust
km/h
Spd
kts
Gust
kts
21/11:30pm 24.9 24.3 20.6 77 2.8 SE 24 33 13 18 1012.9 - 5.0
21/11:00pm 24.3 23.3 21.2 83 2.0 ESE 28 35 15 19 1012.9 - 5.0
21/10:30pm 24.1 24.3 22.0 88 1.4 ESE 24 39 13 21 1013.1 - 4.8
21/10:21pm 23.8 23.6 22.1 90 1.1 SE 26 35 14 19 1013.2 - 4.8
21/10:19pm 23.7 23.5 22.0 90 1.1 SE 26 35 14 19 1013.2 - 4.8
21/10:00pm 23.8 24.8 22.8 94 0.7 SE 22 30 12 16 1013.3 - 4.8
21/09:30pm 23.5 23.7 22.1 92 0.9 ESE 24 32 13 17 1013.0 - 4.0

Latest Capital City Observations: Canberra | Sydney | Melbourne | Brisbane | Adelaide | Perth | Hobart | Darwin

Other Formats:

Comma delimited format used in spreadsheet applications
http://www.bom.gov.au/fwo/IDQ60901/IDQ60901.94569.axf

JavaScript Object Notation format (JSON) in row-major order
http://www.bom.gov.au/fwo/IDQ60901/IDQ60901.94569.json